Date,TemperatureHighF,TemperatureAvgF,TemperatureLowF,DewpointHighF,DewpointAvgF,DewpointLowF,HumidityHigh,HumidityAvg,HumidityLow,PressureMaxIn,PressureMinIn,WindSpeedMaxMPH,WindSpeedAvgMPH,GustSpeedMaxMPH,PrecipitationSumIn
2013-1-1,31.0,26.0,22.0,22.0,13.9,9.0,84,60,50,0.00,40.00,0,0,0,0.00
2013-1-2,30.0,23.3,18.0,11.0,7.0,2.0,57,49,41,0.00,40.00,0,0,0,0.00
2013-1-3,38.0,24.1,16.0,11.0,3.1,-1.0,47,40,32,0.00,40.00,0,0,0,0.00
2013-1-4,42.0,31.0,21.0,11.0,6.0,0.0,40,34,26,0.00,40.00,0,0,0,0.00
2013-1-5,40.0,30.5,23.0,17.0,12.9,8.0,61,48,35,0.00,40.00,0,0,0,0.00
2013-1-6,41.0,31.2,23.0,16.0,11.7,8.0,52,44,33,0.00,40.00,0,0,0,0.00
2013-1-7,44.0,34.9,29.0,20.0,16.4,13.0,55,47,34,0.00,40.00,0,0,0,0.00
2013-1-8,43.0,38.3,32.0,19.0,16.1,12.0,47,40,31,0.00,40.00,0,0,0,0.00
2013-1-9,58.0,45.0,33.0,22.0,17.9,14.0,46,34,22,0.00,40.00,0,0,0,0.00
2013-1-10,49.0,32.5,15.0,24.0,18.6,11.0,91,60,29,0.00,40.00,0,0,0,0.00
2013-1-11,15.0,7.5,5.0,11.0,2.6,0.0,83,80,72,0.00,40.00,0,0,0,0.00
2013-1-12,14.0,8.0,3.0,5.0,2.1,-2.0,83,77,62,0.00,40.00,0,0,0,0.00
2013-1-13,16.0,9.8,4.0,3.0,0.3,-2.0,81,65,51,0.00,40.00,0,0,0,0.00
2013-1-14,17.0,12.2,9.0,3.0,-0.8,-4.0,62,55,48,0.00,40.00,0,0,0,0.00
2013-1-15,33.0,25.4,17.0,17.0,12.4,4.0,65,58,51,0.00,40.00,0,0,0,0.00
2013-1-16,41.0,36.3,32.0,17.0,14.4,11.0,51,41,36,0.00,40.00,0,0,0,0.00
2013-1-17,43.0,36.3,26.0,17.0,13.5,9.0,49,39,30,0.00,40.00,0,0,0,0.00
2013-1-18,50.0,42.5,37.0,17.0,13.6,11.0,34,31,26,0.00,40.00,0,0,0,0.00
2013-1-19,41.0,33.9,27.0,22.0,16.6,10.0,75,52,30,0.00,40.00,0,0,0,0.00
2013-1-20,36.0,20.5,14.0,18.0,13.0,9.0,85,73,42,0.00,40.00,0,0,0,0.00
2013-1-21,31.0,20.5,11.0,17.0,12.6,8.0,87,72,53,0.00,40.00,0,0,0,0.00
2013-1-22,46.0,36.4,25.0,14.0,11.6,8.0,63,37,25,0.00,40.00,0,0,0,0.00
2013-1-23,35.0,21.5,14.0,15.0,13.2,10.0,89,71,37,0.00,40.00,0,0,0,0.00
2013-1-24,50.0,38.4,21.0,23.0,17.7,12.0,75,44,34,0.00,40.00,0,0,0,0.00
2013-1-25,48.0,39.4,30.0,25.0,21.0,17.0,58,48,40,0.00,40.00,0,0,0,0.00
2013-1-26,54.0,43.9,35.0,28.0,23.5,22.0,57,45,31,0.00,40.00,0,0,0,0.00
2013-1-27,43.0,31.7,28.0,31.0,27.4,21.0,91,85,45,0.00,40.00,0,0,0,0.00
2013-1-28,33.0,26.9,22.0,25.0,16.3,7.0,91,65,49,0.00,40.00,0,0,0,0.00
2013-1-29,25.0,15.1,1.0,20.0,6.1,-6.0,88,68,51,0.00,40.00,0,0,0,0.00
2013-1-30,31.0,19.8,3.0,24.0,13.6,-2.0,89,76,59,0.00,40.00,0,0,0,0.00
2013-1-31,34.0,19.1,1.0,22.0,11.7,-5.0,78,73,61,0.00,40.00,0,0,0,0.00
2013-2-1,41.0,35.6,32.0,27.0,22.6,19.0,74,59,44,0.00,40.00,0,0,0,0.00
2013-2-2,36.0,31.0,27.0,19.0,15.7,13.0,62,53,46,0.00,40.00,0,0,0,0.00
2013-2-4,45.0,40.5,35.0,22.0,20.1,16.0,52,44,36,0.00,40.00,0,0,0,0.00
2013-2-5,47.0,39.8,35.0,26.0,22.0,20.0,55,49,41,0.00,40.00,0,0,0,0.00
2013-2-6,45.0,37.2,32.0,20.0,16.8,11.0,53,43,33,0.00,40.00,0,0,0,0.00
2013-2-7,40.0,34.5,29.0,19.0,15.1,12.0,53,45,39,0.00,40.00,0,0,0,0.00
2013-2-8,43.0,32.9,28.0,20.0,17.1,14.0,64,52,38,0.00,40.00,0,0,0,0.00
2013-2-9,37.0,29.8,23.0,24.0,20.1,18.0,87,68,48,0.00,40.00,0,0,0,0.00
2013-2-10,29.0,23.0,17.0,25.0,16.3,9.0,91,76,52,0.00,40.00,0,0,0,0.00
2013-2-11,30.0,21.2,12.0,13.0,7.1,3.0,86,56,38,0.00,40.00,0,0,0,0.00
2013-2-12,39.0,30.5,20.0,18.0,12.0,4.0,50,46,42,0.00,40.00,0,0,0,0.00
2013-2-13,43.0,34.9,27.0,30.0,20.6,13.0,91,58,39,0.00,40.00,0,0,0,0.00
2013-2-14,31.0,26.5,24.0,25.0,15.6,9.0,91,64,40,0.00,40.00,0,0,0,0.00
2013-2-15,40.0,31.1,23.0,24.0,20.2,17.0,91,66,46,0.00,40.00,0,0,0,0.00
2013-2-16,50.0,40.2,32.0,22.0,18.1,15.0,50,41,31,0.00,40.00,0,0,0,0.00
2013-2-17,40.0,34.2,29.0,30.0,20.8,15.0,90,59,39,0.00,40.00,0,0,0,0.00
2013-2-18,32.0,26.3,18.0,23.0,16.2,11.0,90,67,42,0.00,40.00,0,0,0,0.00
2013-2-19,28.0,20.5,14.0,16.0,13.2,9.0,88,74,57,0.00,40.00,0,0,0,0.00
2013-2-20,26.0,20.0,15.0,18.0,13.9,11.0,89,77,61,0.00,40.00,0,0,0,0.00
2013-2-21,39.0,25.3,17.0,22.0,17.2,12.0,87,72,46,0.00,40.00,0,0,0,0.00
2013-2-22,40.0,31.0,24.0,16.0,12.9,8.0,70,49,27,0.00,40.00,0,0,0,0.00
2013-2-23,37.0,31.4,27.0,29.0,19.9,11.0,92,64,40,0.00,40.00,0,0,0,0.00
2013-2-24,36.0,29.1,20.0,23.0,13.9,6.0,80,54,35,0.00,40.00,0,0,0,0.00
2013-2-25,45.0,33.1,23.0,16.0,12.3,7.0,56,42,30,0.00,40.00,0,0,0,0.00
2013-2-26,39.0,32.1,27.0,18.0,14.9,11.0,65,49,37,0.00,40.00,0,0,0,0.00
2013-2-27,43.0,32.1,24.0,17.0,14.8,11.0,71,50,32,0.00,40.00,0,0,0,0.00
2013-2-28,44.0,34.5,29.0,20.0,15.3,12.0,55,45,37,0.00,40.00,0,0,0,0.00
2013-3-1,55.0,42.3,29.0,28.0,22.1,14.0,54,45,34,0.00,40.00,0,0,0,0.00
2013-3-2,61.0,48.7,42.0,27.0,24.6,21.0,44,39,28,0.00,40.00,0,0,0,0.00
2013-3-3,53.0,45.4,40.0,30.0,26.2,23.0,54,47,41,0.00,40.00,0,0,0,0.00
2013-3-4,26.0,19.2,12.0,14.0,9.4,5.0,75,66,50,0.00,40.00,0,0,0,0.00
2013-3-5,26.0,19.0,11.0,17.0,10.4,5.0,76,69,61,0.00,40.00,0,0,0,0.00
2013-3-6,33.0,25.7,17.0,23.0,17.2,11.0,83,70,57,0.00,40.00,0,0,0,0.00
2013-3-7,36.0,31.4,28.0,23.0,22.0,20.0,78,68,56,0.00,40.00,0,0,0,0.00
2013-3-8,40.0,33.3,28.0,26.0,24.8,22.0,85,71,56,0.00,40.00,0,0,0,0.00
2013-3-9,45.0,36.1,26.0,17.0,14.3,11.0,62,42,29,0.00,40.00,0,0,0,0.00
2013-3-10,54.0,39.7,26.0,19.0,15.5,13.0,60,40,22,0.00,40.00,0,0,0,0.00
2013-3-11,45.0,36.2,28.0,23.0,18.8,14.0,60,49,31,0.00,40.00,0,0,0,0.00
2013-3-12,44.0,32.2,22.0,19.0,16.4,13.0,85,54,32,0.00,40.00,0,0,0,0.00
2013-3-13,66.0,50.0,36.0,27.0,22.0,17.0,46,34,22,0.00,40.00,0,0,0,0.00
2013-3-14,66.0,55.3,47.0,30.0,25.0,22.0,39,31,24,0.00,40.00,0,0,0,0.00
2013-3-15,64.0,51.8,34.0,28.0,23.9,21.0,72,35,23,0.00,40.00,0,0,0,0.00
2013-3-16,48.0,34.0,22.0,26.0,23.2,20.0,91,68,37,0.00,40.00,0,0,0,0.00
2013-3-17,38.0,32.4,20.0,29.0,17.4,6.0,90,57,26,0.00,40.00,0,0,0,0.00
2013-3-18,40.0,25.9,11.0,17.0,9.8,3.0,86,55,21,0.00,40.00,0,0,0,0.00
2013-3-19,34.0,27.3,21.0,22.0,16.7,12.0,88,65,41,0.00,40.00,0,0,0,0.00
2013-3-20,53.0,38.5,24.0,19.0,14.6,10.0,60,40,22,0.00,40.00,21,8,24,0.00
2013-3-21,44.0,37.0,30.0,31.0,16.7,3.0,91,47,23,0.00,40.00,26,14,37,0.00
2013-3-22,31.0,25.5,20.0,24.0,11.5,2.0,85,58,31,0.00,40.00,20,10,27,0.00
2013-3-23,33.0,21.7,13.0,12.0,6.5,1.0,76,54,26,0.00,40.00,14,7,22,0.00
2013-3-24,29.0,19.7,12.0,10.0,6.6,4.0,83,58,36,0.00,40.00,13,7,23,0.00
2013-3-25,44.0,30.0,15.0,11.0,6.2,2.0,68,41,18,0.00,40.00,21,10,26,0.00
2013-3-26,52.0,39.1,30.0,18.0,9.1,2.0,35,29,24,0.00,40.00,16,8,22,0.00
2013-3-27,61.0,43.9,27.0,22.0,16.7,10.0,55,35,22,0.00,40.00,17,7,22,0.00
2013-3-28,64.0,48.8,33.0,27.0,21.6,15.0,53,35,23,0.00,40.00,15,7,18,0.00
2013-3-29,59.0,48.8,38.0,36.0,27.6,19.0,73,45,32,0.00,40.00,19,9,34,0.00
2013-3-30,58.0,47.4,40.0,35.0,25.5,-99.9,75,47,25,0.00,40.00,29,12,37,0.00
2013-3-31,58.0,45.6,37.0,28.0,21.8,17.0,49,39,31,0.00,40.00,26,14,34,0.00
2013-4-1,54.0,43.0,29.0,27.0,22.6,18.0,70,46,31,0.00,40.00,16,8,21,0.00
2013-4-2,66.0,47.7,29.0,29.0,23.3,18.0,65,41,24,0.00,40.00,15,7,21,0.00
2013-4-3,64.0,52.5,41.0,32.0,25.4,19.0,57,35,29,0.00,40.00,24,13,29,0.00
2013-4-4,55.0,45.9,34.0,32.0,28.9,25.0,76,53,39,0.00,40.00,22,10,27,0.00
2013-4-5,60.0,51.7,43.0,44.0,33.1,27.0,80,50,36,0.00,40.00,22,10,39,0.00
2013-4-6,62.0,50.2,40.0,37.0,29.3,25.0,72,46,28,0.00,40.00,23,11,34,0.00
2013-4-7,58.0,46.8,35.0,40.0,34.1,30.0,90,63,40,0.00,40.00,28,7,34,0.00
2013-4-8,32.0,21.7,17.0,30.0,18.5,13.0,93,87,80,0.00,40.00,28,17,36,0.00
2013-4-9,27.0,21.1,14.0,14.0,10.4,7.0,79,63,52,0.00,40.00,10,3,12,0.00
2013-4-10,44.0,28.9,16.0,21.0,14.5,7.0,74,56,38,0.00,40.00,19,9,26,0.00
2013-4-11,54.0,42.8,35.0,31.0,26.7,19.0,76,54,36,0.00,40.00,34,13,45,0.00
2013-4-12,46.0,38.6,32.0,32.0,22.6,16.0,90,55,33,0.00,40.00,22,13,27,0.00
2013-4-13,50.0,37.2,33.0,34.0,26.5,17.0,91,67,42,0.00,40.00,32,14,37,0.00
2013-4-14,34.0,29.0,20.0,27.0,19.6,16.0,87,69,49,0.00,40.00,30,18,37,0.00
2013-4-15,31.0,23.8,16.0,22.0,17.5,13.0,86,77,60,0.00,40.00,12,6,18,0.00
2013-4-16,27.0,23.5,20.0,21.0,18.1,15.0,86,80,68,0.00,40.00,15,8,19,0.00
2013-4-17,32.0,23.5,16.0,24.0,17.7,13.0,89,79,54,0.00,40.00,12,5,16,0.00
2013-4-18,49.0,34.0,19.0,21.0,17.6,14.0,89,57,26,0.00,40.00,24,10,33,0.00
2013-4-19,53.0,45.2,34.0,39.0,25.5,20.0,87,48,33,0.00,40.00,20,10,24,0.00
2013-4-20,59.0,46.7,38.0,38.0,30.6,22.0,84,56,25,0.00,40.00,26,12,37,0.00
2013-4-21,44.0,31.2,26.0,32.0,26.1,23.0,91,82,55,0.00,40.00,22,14,26,0.00
2013-4-22,34.0,26.0,21.0,23.0,18.1,13.0,90,73,44,0.00,40.00,19,8,22,0.00
2013-4-23,48.0,32.5,19.0,24.0,14.9,9.0,76,51,22,0.00,40.00,23,10,34,0.00
2013-4-24,54.0,41.2,30.0,30.0,21.9,15.0,91,52,23,0.00,40.00,24,11,35,0.00
2013-4-25,66.0,52.7,39.0,24.0,19.4,16.0,38,28,18,0.00,40.00,20,11,33,0.00
2013-4-26,71.0,57.9,44.0,28.0,24.1,19.0,41,28,19,0.00,40.00,19,9,25,0.00
2013-4-27,74.0,62.8,51.0,30.0,25.5,22.0,34,25,17,0.00,40.00,29,13,41,0.00
2013-4-28,64.0,56.8,50.0,36.0,29.8,22.0,56,36,23,0.00,40.00,16,9,25,0.00
2013-4-29,65.0,52.7,47.0,38.0,29.9,26.0,68,42,28,0.00,40.00,34,12,49,0.00
2013-4-30,45.0,38.8,29.0,27.0,19.2,15.0,64,45,34,0.00,40.00,29,19,35,0.00
2013-5-1,46.0,35.4,24.0,20.0,17.0,13.0,79,50,28,0.00,40.00,13,6,16,0.00
2013-5-2,62.0,47.4,33.0,24.0,20.0,14.0,60,36,20,0.00,40.00,16,10,25,0.00
2013-5-3,63.0,51.5,41.0,40.0,25.3,15.0,79,38,27,0.00,40.00,20,10,30,0.00
2013-5-4,55.0,48.0,43.0,42.0,36.0,27.0,89,66,39,0.00,40.00,23,7,30,0.00
2013-5-5,64.0,53.4,39.0,37.0,28.0,21.0,85,42,23,0.00,40.00,16,9,23,0.00
2013-5-6,72.0,58.2,43.0,33.0,26.8,20.0,44,31,22,0.00,40.00,16,8,19,0.00
2013-5-7,77.0,61.8,47.0,37.0,29.1,24.0,46,30,20,0.00,40.00,18,10,27,0.00
2013-5-8,68.0,57.0,43.0,39.0,34.5,26.0,68,44,29,0.00,40.00,29,11,34,0.00
2013-5-9,71.0,58.8,43.0,41.0,36.1,32.0,71,45,29,0.00,40.00,13,6,19,0.00
2013-5-10,68.0,56.1,47.0,40.0,31.3,-99.9,57,41,29,0.00,40.00,27,12,34,0.00
2013-5-11,74.0,57.9,43.0,38.0,28.1,-99.9,41,33,27,0.00,40.00,12,8,19,0.00
2013-5-12,88.0,73.0,59.0,43.0,37.7,32.0,37,28,18,0.00,40.00,29,12,35,0.00
2013-5-13,91.0,76.9,66.0,46.0,39.3,35.0,34,27,18,0.00,40.00,24,9,32,0.00
2013-5-14,79.0,65.9,52.0,44.0,37.2,26.0,64,37,23,0.00,40.00,24,11,34,0.00
2013-5-15,72.0,60.9,48.0,45.0,30.1,21.0,66,31,27,0.00,40.00,17,12,26,0.00
2013-5-16,69.0,53.3,50.0,50.0,28.7,-99.9,90,66,39,0.00,40.00,25,10,30,0.00
2013-5-17,59.0,52.9,50.0,52.0,44.2,-99.9,91,84,65,0.00,40.00,12,5,19,0.00
2013-5-18,55.0,52.8,51.0,50.0,48.5,47.0,90,85,73,0.00,40.00,15,7,18,0.00
2013-5-19,54.0,50.6,49.0,49.0,47.3,46.0,89,89,85,0.00,40.00,21,15,29,0.00
2013-5-20,62.0,54.5,47.0,44.0,36.6,25.0,85,54,25,0.00,40.00,27,16,37,0.00
2013-5-21,62.0,52.0,42.0,39.0,34.5,27.0,83,56,27,0.00,40.00,27,10,35,0.00
2013-5-22,63.0,51.0,43.0,40.0,38.8,37.0,89,66,40,0.00,40.00,39,23,50,0.00
2013-5-23,69.0,58.7,50.0,51.0,41.5,37.0,86,54,37,0.00,40.00,35,22,44,0.00
2013-5-24,70.0,57.7,46.0,50.0,34.4,24.0,89,50,19,0.00,40.00,24,13,32,0.00
2013-5-25,75.0,61.7,48.0,39.0,33.4,25.0,47,35,23,0.00,40.00,24,12,27,0.00
2013-5-26,73.0,60.1,49.0,51.0,45.0,37.0,86,59,36,0.00,40.00,24,12,30,0.00
2013-5-27,63.0,55.0,47.0,47.0,41.8,36.0,90,64,37,0.00,40.00,14,5,26,0.00
2013-5-28,68.0,58.4,49.0,46.0,41.0,36.0,75,54,35,0.00,40.00,13,5,17,0.00
2013-5-29,56.0,51.1,49.0,49.0,47.4,44.0,90,87,72,0.00,40.00,21,13,27,0.00
2013-5-30,49.0,49.0,49.0,45.0,45.0,45.0,87,87,87,0.00,40.00,10,10,15,0.00
2013-5-31,51.0,46.8,45.0,43.0,40.9,38.0,89,80,65,0.00,40.00,30,21,42,0.00
2013-6-1,66.0,55.2,45.0,40.0,36.5,33.0,77,53,31,0.00,40.00,15,7,19,0.00
2013-6-2,73.0,61.2,50.0,47.0,42.5,39.0,71,52,32,0.00,40.00,24,14,29,0.00
2013-6-3,59.0,49.8,44.0,50.0,38.4,32.0,88,66,38,0.00,40.00,35,22,44,0.00
2013-6-4,50.0,44.7,39.0,38.0,35.6,34.0,87,71,55,0.00,40.00,15,9,20,0.00
2013-6-5,65.0,51.8,41.0,38.0,34.6,29.0,82,55,27,0.00,40.00,13,6,18,0.00
2013-6-6,74.0,62.0,50.0,47.0,41.4,33.0,67,48,34,0.00,40.00,16,9,26,0.00
2013-6-7,81.0,65.9,54.0,50.0,47.0,42.0,77,53,28,0.00,40.00,19,7,28,0.00
2013-6-8,64.0,63.3,62.0,49.0,45.6,44.0,57,52,50,0.00,40.00,18,16,26,0.00
2013-6-9,80.0,75.5,68.0,48.0,46.4,45.0,47,36,29,0.00,40.00,16,11,21,0.00
2013-6-10,76.0,63.8,50.0,52.0,45.6,40.0,84,54,30,0.00,40.00,24,11,31,0.00
2013-6-11,74.0,63.6,54.0,58.0,52.0,47.0,88,67,53,0.00,40.00,30,13,43,0.00
2013-6-12,68.0,58.5,51.0,55.0,50.8,49.0,90,77,60,0.00,40.00,26,12,35,0.00
2013-6-13,75.0,65.1,50.0,54.0,50.6,47.0,90,61,40,0.00,40.00,32,17,49,0.00
2013-6-14,66.0,57.2,49.0,47.0,36.2,27.0,83,49,25,0.00,40.00,30,15,38,0.00
2013-6-15,76.0,62.1,46.0,35.0,32.0,29.0,56,34,20,0.00,40.00,11,7,18,0.00
2013-6-16,73.0,64.7,53.0,44.0,39.4,34.0,54,40,32,0.00,40.00,15,8,21,0.00
2013-6-17,77.0,66.2,55.0,48.0,45.1,41.0,64,48,34,0.00,40.00,21,12,26,0.00
2013-6-18,86.0,70.6,58.0,53.0,48.2,42.0,65,47,29,0.00,40.00,25,14,29,0.00
2013-6-19,86.0,71.7,59.0,54.0,46.7,38.0,52,41,32,0.00,40.00,32,17,44,0.00
2013-6-20,68.0,59.8,51.0,38.0,31.9,27.0,43,35,27,0.00,40.00,19,8,26,0.00
2013-6-22,65.0,57.2,51.0,49.0,46.3,45.0,82,68,50,0.00,40.00,20,8,24,0.00
2013-6-23,51.0,50.2,50.0,47.0,46.2,46.0,86,86,85,0.00,40.00,10,6,12,0.00
2013-6-24,85.0,74.2,57.0,53.0,48.8,44.0,62,42,29,0.00,40.00,17,8,23,0.00
2013-6-25,82.0,71.0,59.0,52.0,44.9,40.0,77,42,23,0.00,40.00,17,9,26,0.00
2013-6-26,82.0,71.6,63.0,56.0,47.2,41.0,70,43,30,0.00,40.00,24,9,28,0.00
2013-6-27,85.0,72.1,61.0,56.0,52.4,49.0,80,52,31,0.00,40.00,14,7,22,0.00
2013-6-28,89.0,75.8,63.0,54.0,50.8,47.0,57,43,29,0.00,40.00,12,7,16,0.00
2013-6-29,86.0,75.0,64.0,59.0,52.9,49.0,85,48,35,0.00,40.00,17,8,34,0.00
2013-6-30,87.0,74.3,61.0,58.0,53.8,49.0,83,52,29,0.00,40.00,19,7,26,0.00
2013-7-1,90.0,76.9,63.0,56.0,51.0,48.0,59,41,28,0.00,40.00,18,7,22,0.00
2013-7-2,90.0,78.3,66.0,54.0,51.0,47.0,57,40,27,0.00,40.00,13,6,17,0.00
2013-7-3,95.0,81.7,68.0,58.0,51.1,45.0,45,35,26,0.00,40.00,19,10,26,0.00
2013-7-4,87.0,76.3,66.0,64.0,55.6,48.0,86,51,33,0.00,40.00,23,9,30,0.00
2013-7-5,79.0,69.4,61.0,60.0,52.5,49.0,79,56,37,0.00,40.00,26,6,36,0.00
2013-7-6,80.0,67.2,57.0,55.0,50.8,45.0,88,60,31,0.00,40.00,18,7,23,0.00
2013-7-7,84.0,68.9,56.0,55.0,50.3,43.0,89,55,32,0.00,40.00,17,8,25,0.00
2013-7-8,89.0,70.5,59.0,57.0,51.2,45.0,88,54,29,0.00,40.00,35,7,60,0.00
2013-7-9,77.0,65.1,58.0,58.0,53.8,46.0,90,70,35,0.00,40.00,13,7,19,0.00